sensor_id;sensor_type;location;lat;lon;timestamp;P1;durP1;ratioP1;P2;durP2;ratioP2
18449;SDS011;9354;50.194;7.690;2023-11-18T00:01:12;160.47;;;15.47;;
18449;SDS011;9354;50.194;7.690;2023-11-18T00:03:39;99.10;;;13.73;;
18449;SDS011;9354;50.194;7.690;2023-11-18T00:06:08;71.83;;;13.03;;
18449;SDS011;9354;50.194;7.690;2023-11-18T00:08:35;74.10;;;12.13;;
18449;SDS011;9354;50.194;7.690;2023-11-18T00:11:03;131.53;;;14.70;;
18449;SDS011;9354;50.194;7.690;2023-11-18T00:13:31;83.10;;;12.63;;
18449;SDS011;9354;50.194;7.690;2023-11-18T00:15:58;57.73;;;12.20;;
18449;SDS011;9354;50.194;7.690;2023-11-18T00:18:25;57.13;;;13.07;;
18449;SDS011;9354;50.194;7.690;2023-11-18T00:20:53;189.03;;;14.93;;
18449;SDS011;9354;50.194;7.690;2023-11-18T00:23:24;128.30;;;13.80;;
18449;SDS011;9354;50.194;7.690;2023-11-18T00:25:52;173.90;;;14.60;;
18449;SDS011;9354;50.194;7.690;2023-11-18T00:28:19;55.27;;;11.17;;
18449;SDS011;9354;50.194;7.690;2023-11-18T00:30:46;87.87;;;11.37;;
18449;SDS011;9354;50.194;7.690;2023-11-18T00:33:14;46.23;;;11.10;;
18449;SDS011;9354;50.194;7.690;2023-11-18T00:35:41;81.00;;;11.77;;
18449;SDS011;9354;50.194;7.690;2023-11-18T00:38:10;265.17;;;15.63;;
18449;SDS011;9354;50.194;7.690;2023-11-18T00:40:39;55.07;;;12.00;;
18449;SDS011;9354;50.194;7.690;2023-11-18T00:43:07;100.90;;;12.67;;
18449;SDS011;9354;50.194;7.690;2023-11-18T00:45:35;103.23;;;12.57;;
18449;SDS011;9354;50.194;7.690;2023-11-18T00:48:02;192.20;;;14.17;;
18449;SDS011;9354;50.194;7.690;2023-11-18T00:50:30;87.40;;;12.77;;
18449;SDS011;9354;50.194;7.690;2023-11-18T00:52:58;267.83;;;15.90;;
18449;SDS011;9354;50.194;7.690;2023-11-18T00:55:26;54.53;;;11.83;;
18449;SDS011;9354;50.194;7.690;2023-11-18T00:57:55;144.60;;;15.03;;
18449;SDS011;9354;50.194;7.690;2023-11-18T01:00:22;59.80;;;11.17;;
18449;SDS011;9354;50.194;7.690;2023-11-18T01:02:52;142.73;;;14.20;;
18449;SDS011;9354;50.194;7.690;2023-11-18T01:05:20;200.73;;;14.97;;
18449;SDS011;9354;50.194;7.690;2023-11-18T01:07:47;62.23;;;11.80;;
18449;SDS011;9354;50.194;7.690;2023-11-18T01:10:15;50.30;;;11.30;;
18449;SDS011;9354;50.194;7.690;2023-11-18T01:12:44;161.93;;;13.40;;
18449;SDS011;9354;50.194;7.690;2023-11-18T01:15:13;196.30;;;14.97;;
18449;SDS011;9354;50.194;7.690;2023-11-18T01:17:41;136.93;;;12.57;;
18449;SDS011;9354;50.194;7.690;2023-11-18T01:20:09;50.37;;;11.00;;
18449;SDS011;9354;50.194;7.690;2023-11-18T01:22:38;85.60;;;11.77;;
18449;SDS011;9354;50.194;7.690;2023-11-18T01:25:07;184.97;;;12.03;;
18449;SDS011;9354;50.194;7.690;2023-11-18T01:27:35;110.93;;;12.17;;
18449;SDS011;9354;50.194;7.690;2023-11-18T01:30:03;54.63;;;10.33;;
18449;SDS011;9354;50.194;7.690;2023-11-18T01:32:32;77.47;;;11.70;;
18449;SDS011;9354;50.194;7.690;2023-11-18T01:35:00;71.43;;;11.53;;
18449;SDS011;9354;50.194;7.690;2023-11-18T01:37:27;101.77;;;12.23;;
18449;SDS011;9354;50.194;7.690;2023-11-18T01:39:54;27.33;;;10.63;;
18449;SDS011;9354;50.194;7.690;2023-11-18T01:42:22;28.87;;;10.73;;
18449;SDS011;9354;50.194;7.690;2023-11-18T01:44:50;25.53;;;10.70;;
18449;SDS011;9354;50.194;7.690;2023-11-18T01:47:17;29.27;;;11.87;;
18449;SDS011;9354;50.194;7.690;2023-11-18T01:49:46;25.13;;;10.10;;
18449;SDS011;9354;50.194;7.690;2023-11-18T01:52:14;28.87;;;11.67;;
18449;SDS011;9354;50.194;7.690;2023-11-18T01:54:42;29.87;;;10.63;;
18449;SDS011;9354;50.194;7.690;2023-11-18T01:57:11;25.00;;;9.70;;
18449;SDS011;9354;50.194;7.690;2023-11-18T01:59:39;25.80;;;10.80;;
18449;SDS011;9354;50.194;7.690;2023-11-18T02:02:07;24.07;;;10.67;;
18449;SDS011;9354;50.194;7.690;2023-11-18T02:04:34;31.60;;;11.47;;
18449;SDS011;9354;50.194;7.690;2023-11-18T02:07:03;30.20;;;11.60;;
18449;SDS011;9354;50.194;7.690;2023-11-18T02:09:34;28.73;;;11.37;;
18449;SDS011;9354;50.194;7.690;2023-11-18T02:12:05;46.37;;;10.67;;
18449;SDS011;9354;50.194;7.690;2023-11-18T02:14:42;41.87;;;10.73;;
18449;SDS011;9354;50.194;7.690;2023-11-18T02:17:12;24.50;;;9.63;;
18449;SDS011;9354;50.194;7.690;2023-11-18T02:19:41;153.70;;;12.33;;
18449;SDS011;9354;50.194;7.690;2023-11-18T02:22:11;260.47;;;14.70;;
18449;SDS011;9354;50.194;7.690;2023-11-18T02:24:40;187.40;;;12.70;;
18449;SDS011;9354;50.194;7.690;2023-11-18T02:27:09;61.33;;;10.43;;
18449;SDS011;9354;50.194;7.690;2023-11-18T02:29:40;77.70;;;10.57;;
18449;SDS011;9354;50.194;7.690;2023-11-18T02:32:11;29.93;;;10.20;;
18449;SDS011;9354;50.194;7.690;2023-11-18T02:34:49;57.00;;;9.30;;
18449;SDS011;9354;50.194;7.690;2023-11-18T02:37:23;23.60;;;8.83;;
18449;SDS011;9354;50.194;7.690;2023-11-18T02:39:53;26.57;;;9.30;;
18449;SDS011;9354;50.194;7.690;2023-11-18T02:42:24;33.23;;;9.27;;
18449;SDS011;9354;50.194;7.690;2023-11-18T02:44:53;19.23;;;8.57;;
18449;SDS011;9354;50.194;7.690;2023-11-18T02:47:25;23.93;;;10.07;;
18449;SDS011;9354;50.194;7.690;2023-11-18T02:49:53;23.17;;;9.57;;
18449;SDS011;9354;50.194;7.690;2023-11-18T02:52:22;24.53;;;9.97;;
18449;SDS011;9354;50.194;7.690;2023-11-18T02:54:49;21.63;;;9.53;;
18449;SDS011;9354;50.194;7.690;2023-11-18T02:57:17;25.63;;;10.30;;
18449;SDS011;9354;50.194;7.690;2023-11-18T02:59:45;24.13;;;9.53;;
18449;SDS011;9354;50.194;7.690;2023-11-18T03:02:13;24.90;;;10.03;;
18449;SDS011;9354;50.194;7.690;2023-11-18T03:04:40;26.87;;;10.33;;
18449;SDS011;9354;50.194;7.690;2023-11-18T03:07:09;23.63;;;9.60;;
18449;SDS011;9354;50.194;7.690;2023-11-18T03:09:37;23.47;;;9.97;;
18449;SDS011;9354;50.194;7.690;2023-11-18T03:12:05;25.40;;;10.77;;
18449;SDS011;9354;50.194;7.690;2023-11-18T03:14:33;21.73;;;9.87;;
18449;SDS011;9354;50.194;7.690;2023-11-18T03:17:02;22.23;;;9.50;;
18449;SDS011;9354;50.194;7.690;2023-11-18T03:19:32;25.73;;;10.70;;
18449;SDS011;9354;50.194;7.690;2023-11-18T03:22:00;21.73;;;9.37;;
18449;SDS011;9354;50.194;7.690;2023-11-18T03:24:28;24.60;;;10.37;;
18449;SDS011;9354;50.194;7.690;2023-11-18T03:26:55;26.53;;;11.03;;
18449;SDS011;9354;50.194;7.690;2023-11-18T03:29:22;47.63;;;11.40;;
18449;SDS011;9354;50.194;7.690;2023-11-18T03:31:50;37.07;;;9.43;;
18449;SDS011;9354;50.194;7.690;2023-11-18T03:34:19;39.00;;;10.60;;
18449;SDS011;9354;50.194;7.690;2023-11-18T03:36:46;23.70;;;9.80;;
18449;SDS011;9354;50.194;7.690;2023-11-18T03:39:14;24.37;;;9.63;;
18449;SDS011;9354;50.194;7.690;2023-11-18T03:41:41;24.40;;;10.17;;
18449;SDS011;9354;50.194;7.690;2023-11-18T03:44:10;26.23;;;9.47;;
18449;SDS011;9354;50.194;7.690;2023-11-18T03:46:38;26.63;;;10.33;;
18449;SDS011;9354;50.194;7.690;2023-11-18T03:49:06;31.20;;;9.60;;
18449;SDS011;9354;50.194;7.690;2023-11-18T03:51:35;23.77;;;9.87;;
18449;SDS011;9354;50.194;7.690;2023-11-18T03:54:02;22.70;;;9.30;;
18449;SDS011;9354;50.194;7.690;2023-11-18T03:56:31;28.33;;;9.90;;
18449;SDS011;9354;50.194;7.690;2023-11-18T03:58:58;68.27;;;10.57;;
18449;SDS011;9354;50.194;7.690;2023-11-18T04:01:25;32.60;;;10.30;;
18449;SDS011;9354;50.194;7.690;2023-11-18T04:03:53;45.37;;;11.07;;
18449;SDS011;9354;50.194;7.690;2023-11-18T04:06:20;211.73;;;13.47;;
18449;SDS011;9354;50.194;7.690;2023-11-18T04:08:49;180.13;;;12.77;;
18449;SDS011;9354;50.194;7.690;2023-11-18T04:11:17;121.43;;;11.60;;
18449;SDS011;9354;50.194;7.690;2023-11-18T04:13:44;228.57;;;13.00;;
18449;SDS011;9354;50.194;7.690;2023-11-18T04:16:12;176.77;;;11.57;;
18449;SDS011;9354;50.194;7.690;2023-11-18T04:18:41;353.17;;;15.93;;
18449;SDS011;9354;50.194;7.690;2023-11-18T04:21:09;97.87;;;11.10;;
18449;SDS011;9354;50.194;7.690;2023-11-18T04:23:38;56.03;;;9.40;;
18449;SDS011;9354;50.194;7.690;2023-11-18T04:26:08;293.93;;;15.10;;
18449;SDS011;9354;50.194;7.690;2023-11-18T04:28:36;256.13;;;18.57;;
18449;SDS011;9354;50.194;7.690;2023-11-18T04:31:03;254.60;;;13.20;;
18449;SDS011;9354;50.194;7.690;2023-11-18T04:33:32;137.60;;;9.93;;
18449;SDS011;9354;50.194;7.690;2023-11-18T04:35:59;157.70;;;11.10;;
18449;SDS011;9354;50.194;7.690;2023-11-18T04:38:27;170.97;;;12.20;;
18449;SDS011;9354;50.194;7.690;2023-11-18T04:40:55;165.93;;;11.90;;
18449;SDS011;9354;50.194;7.690;2023-11-18T04:43:24;144.53;;;10.63;;
18449;SDS011;9354;50.194;7.690;2023-11-18T04:45:51;47.50;;;9.93;;
18449;SDS011;9354;50.194;7.690;2023-11-18T04:48:20;212.87;;;13.00;;
18449;SDS011;9354;50.194;7.690;2023-11-18T04:50:47;109.77;;;11.17;;
18449;SDS011;9354;50.194;7.690;2023-11-18T04:53:15;70.77;;;9.70;;
18449;SDS011;9354;50.194;7.690;2023-11-18T04:55:42;84.93;;;10.30;;
18449;SDS011;9354;50.194;7.690;2023-11-18T04:58:10;91.60;;;11.23;;
18449;SDS011;9354;50.194;7.690;2023-11-18T05:00:39;99.67;;;10.73;;
18449;SDS011;9354;50.194;7.690;2023-11-18T05:03:07;216.53;;;12.50;;
18449;SDS011;9354;50.194;7.690;2023-11-18T05:05:35;59.57;;;9.37;;
18449;SDS011;9354;50.194;7.690;2023-11-18T05:08:04;63.13;;;8.93;;
18449;SDS011;9354;50.194;7.690;2023-11-18T05:10:33;100.07;;;9.83;;
18449;SDS011;9354;50.194;7.690;2023-11-18T05:13:02;76.67;;;8.53;;
18449;SDS011;9354;50.194;7.690;2023-11-18T05:15:29;44.20;;;8.80;;
18449;SDS011;9354;50.194;7.690;2023-11-18T05:17:58;231.20;;;11.17;;
18449;SDS011;9354;50.194;7.690;2023-11-18T05:20:25;349.13;;;14.73;;
18449;SDS011;9354;50.194;7.690;2023-11-18T05:22:53;233.47;;;13.77;;
18449;SDS011;9354;50.194;7.690;2023-11-18T05:25:21;120.77;;;10.23;;
18449;SDS011;9354;50.194;7.690;2023-11-18T05:27:48;388.77;;;17.27;;
18449;SDS011;9354;50.194;7.690;2023-11-18T05:30:15;398.50;;;16.37;;
18449;SDS011;9354;50.194;7.690;2023-11-18T05:32:43;439.70;;;17.17;;
18449;SDS011;9354;50.194;7.690;2023-11-18T05:35:12;200.20;;;10.50;;
18449;SDS011;9354;50.194;7.690;2023-11-18T05:37:39;115.80;;;11.57;;
18449;SDS011;9354;50.194;7.690;2023-11-18T05:40:07;154.33;;;10.60;;
18449;SDS011;9354;50.194;7.690;2023-11-18T05:42:37;211.70;;;12.07;;
18449;SDS011;9354;50.194;7.690;2023-11-18T05:45:07;118.40;;;8.50;;
18449;SDS011;9354;50.194;7.690;2023-11-18T05:47:43;109.17;;;9.90;;
18449;SDS011;9354;50.194;7.690;2023-11-18T05:50:11;111.93;;;8.77;;
18449;SDS011;9354;50.194;7.690;2023-11-18T05:52:40;231.70;;;11.27;;
18449;SDS011;9354;50.194;7.690;2023-11-18T05:55:08;129.27;;;9.53;;
18449;SDS011;9354;50.194;7.690;2023-11-18T05:57:36;486.10;;;18.87;;
18449;SDS011;9354;50.194;7.690;2023-11-18T06:00:04;436.93;;;17.07;;
18449;SDS011;9354;50.194;7.690;2023-11-18T06:02:34;532.37;;;20.30;;
18449;SDS011;9354;50.194;7.690;2023-11-18T06:05:04;501.23;;;18.87;;
18449;SDS011;9354;50.194;7.690;2023-11-18T06:07:33;521.60;;;19.77;;
18449;SDS011;9354;50.194;7.690;2023-11-18T06:10:01;546.70;;;22.73;;
18449;SDS011;9354;50.194;7.690;2023-11-18T06:12:31;511.57;;;22.87;;
18449;SDS011;9354;50.194;7.690;2023-11-18T06:14:58;204.53;;;11.30;;
18449;SDS011;9354;50.194;7.690;2023-11-18T06:17:26;183.20;;;11.57;;
18449;SDS011;9354;50.194;7.690;2023-11-18T06:19:54;69.03;;;9.10;;
18449;SDS011;9354;50.194;7.690;2023-11-18T06:22:24;101.43;;;10.27;;
18449;SDS011;9354;50.194;7.690;2023-11-18T06:24:53;143.67;;;10.77;;
18449;SDS011;9354;50.194;7.690;2023-11-18T06:27:20;101.73;;;9.77;;
18449;SDS011;9354;50.194;7.690;2023-11-18T06:29:50;100.70;;;10.00;;
18449;SDS011;9354;50.194;7.690;2023-11-18T06:32:20;115.10;;;10.23;;
18449;SDS011;9354;50.194;7.690;2023-11-18T06:34:47;18.43;;;7.50;;
18449;SDS011;9354;50.194;7.690;2023-11-18T06:37:15;33.13;;;8.67;;
18449;SDS011;9354;50.194;7.690;2023-11-18T06:39:43;39.03;;;7.80;;
18449;SDS011;9354;50.194;7.690;2023-11-18T06:42:14;21.03;;;7.77;;
18449;SDS011;9354;50.194;7.690;2023-11-18T06:44:42;17.97;;;7.93;;
18449;SDS011;9354;50.194;7.690;2023-11-18T06:47:09;17.13;;;7.50;;
18449;SDS011;9354;50.194;7.690;2023-11-18T06:49:38;20.63;;;7.90;;
18449;SDS011;9354;50.194;7.690;2023-11-18T06:52:06;20.00;;;7.90;;
18449;SDS011;9354;50.194;7.690;2023-11-18T06:54:41;20.17;;;7.97;;
18449;SDS011;9354;50.194;7.690;2023-11-18T06:57:08;17.23;;;7.97;;
18449;SDS011;9354;50.194;7.690;2023-11-18T06:59:38;17.20;;;7.70;;
18449;SDS011;9354;50.194;7.690;2023-11-18T07:02:05;19.87;;;8.07;;
18449;SDS011;9354;50.194;7.690;2023-11-18T07:04:32;21.70;;;8.43;;
18449;SDS011;9354;50.194;7.690;2023-11-18T07:07:00;20.97;;;8.30;;
18449;SDS011;9354;50.194;7.690;2023-11-18T07:09:28;18.90;;;8.83;;
18449;SDS011;9354;50.194;7.690;2023-11-18T07:12:03;16.80;;;7.97;;
18449;SDS011;9354;50.194;7.690;2023-11-18T07:14:30;21.23;;;8.47;;
18449;SDS011;9354;50.194;7.690;2023-11-18T07:17:00;18.87;;;8.50;;
18449;SDS011;9354;50.194;7.690;2023-11-18T07:19:27;24.60;;;9.37;;
18449;SDS011;9354;50.194;7.690;2023-11-18T07:21:55;20.20;;;8.70;;
18449;SDS011;9354;50.194;7.690;2023-11-18T07:24:22;21.10;;;9.13;;
18449;SDS011;9354;50.194;7.690;2023-11-18T07:26:50;23.83;;;9.80;;
18449;SDS011;9354;50.194;7.690;2023-11-18T07:29:17;26.17;;;9.60;;
18449;SDS011;9354;50.194;7.690;2023-11-18T07:31:45;23.30;;;9.97;;
18449;SDS011;9354;50.194;7.690;2023-11-18T07:34:13;22.10;;;9.20;;
18449;SDS011;9354;50.194;7.690;2023-11-18T07:36:41;29.80;;;10.60;;
18449;SDS011;9354;50.194;7.690;2023-11-18T07:39:11;25.00;;;10.03;;
18449;SDS011;9354;50.194;7.690;2023-11-18T07:41:41;28.93;;;10.50;;
18449;SDS011;9354;50.194;7.690;2023-11-18T07:44:08;24.67;;;10.03;;
18449;SDS011;9354;50.194;7.690;2023-11-18T07:46:38;26.53;;;9.73;;
18449;SDS011;9354;50.194;7.690;2023-11-18T07:49:08;28.83;;;10.60;;
18449;SDS011;9354;50.194;7.690;2023-11-18T07:51:37;24.57;;;9.90;;
18449;SDS011;9354;50.194;7.690;2023-11-18T07:54:06;23.80;;;10.50;;
18449;SDS011;9354;50.194;7.690;2023-11-18T07:56:35;25.23;;;10.97;;
18449;SDS011;9354;50.194;7.690;2023-11-18T07:59:03;25.20;;;10.70;;
18449;SDS011;9354;50.194;7.690;2023-11-18T08:01:32;28.10;;;10.53;;
18449;SDS011;9354;50.194;7.690;2023-11-18T08:04:00;29.73;;;11.13;;
18449;SDS011;9354;50.194;7.690;2023-11-18T08:06:27;28.50;;;9.93;;
18449;SDS011;9354;50.194;7.690;2023-11-18T08:08:56;24.70;;;9.43;;
18449;SDS011;9354;50.194;7.690;2023-11-18T08:11:23;20.60;;;9.77;;
18449;SDS011;9354;50.194;7.690;2023-11-18T08:13:51;23.60;;;9.67;;
18449;SDS011;9354;50.194;7.690;2023-11-18T08:16:19;24.17;;;9.17;;
18449;SDS011;9354;50.194;7.690;2023-11-18T08:18:47;26.00;;;9.80;;
18449;SDS011;9354;50.194;7.690;2023-11-18T08:21:15;23.43;;;9.57;;
18449;SDS011;9354;50.194;7.690;2023-11-18T08:23:42;22.07;;;8.70;;
18449;SDS011;9354;50.194;7.690;2023-11-18T08:26:12;24.50;;;9.77;;
18449;SDS011;9354;50.194;7.690;2023-11-18T08:28:39;25.40;;;10.23;;
18449;SDS011;9354;50.194;7.690;2023-11-18T08:31:07;20.93;;;9.50;;
18449;SDS011;9354;50.194;7.690;2023-11-18T08:33:34;24.90;;;9.93;;
18449;SDS011;9354;50.194;7.690;2023-11-18T08:36:02;22.80;;;10.10;;
18449;SDS011;9354;50.194;7.690;2023-11-18T08:38:30;23.43;;;10.07;;
18449;SDS011;9354;50.194;7.690;2023-11-18T08:40:57;26.80;;;10.47;;
18449;SDS011;9354;50.194;7.690;2023-11-18T08:43:26;24.73;;;10.63;;
18449;SDS011;9354;50.194;7.690;2023-11-18T08:45:54;27.07;;;10.27;;
18449;SDS011;9354;50.194;7.690;2023-11-18T08:48:21;23.23;;;10.30;;
18449;SDS011;9354;50.194;7.690;2023-11-18T08:50:49;27.40;;;10.50;;
18449;SDS011;9354;50.194;7.690;2023-11-18T08:53:17;26.07;;;11.27;;
18449;SDS011;9354;50.194;7.690;2023-11-18T08:55:44;22.10;;;9.90;;
18449;SDS011;9354;50.194;7.690;2023-11-18T08:58:19;25.83;;;10.40;;
18449;SDS011;9354;50.194;7.690;2023-11-18T09:00:49;27.90;;;10.80;;
18449;SDS011;9354;50.194;7.690;2023-11-18T09:03:20;25.67;;;11.00;;
18449;SDS011;9354;50.194;7.690;2023-11-18T09:05:54;24.77;;;10.17;;
18449;SDS011;9354;50.194;7.690;2023-11-18T09:08:30;23.23;;;10.37;;
18449;SDS011;9354;50.194;7.690;2023-11-18T09:11:00;23.50;;;10.63;;
18449;SDS011;9354;50.194;7.690;2023-11-18T09:13:30;28.27;;;10.53;;
18449;SDS011;9354;50.194;7.690;2023-11-18T09:16:02;23.07;;;10.50;;
18449;SDS011;9354;50.194;7.690;2023-11-18T09:18:34;28.63;;;11.60;;
18449;SDS011;9354;50.194;7.690;2023-11-18T09:21:01;28.37;;;9.90;;
18449;SDS011;9354;50.194;7.690;2023-11-18T09:23:30;24.60;;;10.30;;
18449;SDS011;9354;50.194;7.690;2023-11-18T09:26:00;25.83;;;10.23;;
18449;SDS011;9354;50.194;7.690;2023-11-18T09:28:28;28.20;;;11.63;;
18449;SDS011;9354;50.194;7.690;2023-11-18T09:30:55;28.53;;;11.63;;
18449;SDS011;9354;50.194;7.690;2023-11-18T09:33:25;28.07;;;10.53;;
18449;SDS011;9354;50.194;7.690;2023-11-18T09:35:58;28.47;;;10.40;;
18449;SDS011;9354;50.194;7.690;2023-11-18T09:38:26;30.80;;;11.53;;
18449;SDS011;9354;50.194;7.690;2023-11-18T09:40:54;27.90;;;10.80;;
18449;SDS011;9354;50.194;7.690;2023-11-18T09:43:23;23.87;;;10.97;;
18449;SDS011;9354;50.194;7.690;2023-11-18T09:45:54;27.37;;;10.50;;
18449;SDS011;9354;50.194;7.690;2023-11-18T09:48:29;30.30;;;11.30;;
18449;SDS011;9354;50.194;7.690;2023-11-18T09:51:06;29.03;;;10.67;;
18449;SDS011;9354;50.194;7.690;2023-11-18T09:53:36;28.03;;;12.30;;
18449;SDS011;9354;50.194;7.690;2023-11-18T09:56:07;31.80;;;12.17;;
18449;SDS011;9354;50.194;7.690;2023-11-18T09:58:45;29.93;;;11.47;;
18449;SDS011;9354;50.194;7.690;2023-11-18T10:01:50;25.47;;;11.17;;
18449;SDS011;9354;50.194;7.690;2023-11-18T10:04:24;29.23;;;12.30;;
18449;SDS011;9354;50.194;7.690;2023-11-18T10:06:53;26.37;;;11.17;;
18449;SDS011;9354;50.194;7.690;2023-11-18T10:09:22;27.67;;;11.57;;
18449;SDS011;9354;50.194;7.690;2023-11-18T10:11:54;31.00;;;11.53;;
18449;SDS011;9354;50.194;7.690;2023-11-18T10:14:26;29.03;;;12.10;;
18449;SDS011;9354;50.194;7.690;2023-11-18T10:16:53;27.17;;;11.23;;
18449;SDS011;9354;50.194;7.690;2023-11-18T10:19:20;28.30;;;10.87;;
18449;SDS011;9354;50.194;7.690;2023-11-18T10:21:52;27.73;;;10.53;;
18449;SDS011;9354;50.194;7.690;2023-11-18T10:24:22;28.87;;;10.27;;
18449;SDS011;9354;50.194;7.690;2023-11-18T10:26:56;27.07;;;11.17;;
18449;SDS011;9354;50.194;7.690;2023-11-18T10:29:24;29.57;;;10.30;;
18449;SDS011;9354;50.194;7.690;2023-11-18T10:32:02;20.77;;;8.93;;
18449;SDS011;9354;50.194;7.690;2023-11-18T10:34:35;24.73;;;9.63;;
18449;SDS011;9354;50.194;7.690;2023-11-18T10:37:04;20.27;;;9.43;;
18449;SDS011;9354;50.194;7.690;2023-11-18T10:39:32;22.93;;;9.47;;
18449;SDS011;9354;50.194;7.690;2023-11-18T10:42:01;23.00;;;9.67;;
18449;SDS011;9354;50.194;7.690;2023-11-18T10:44:31;25.07;;;9.83;;
18449;SDS011;9354;50.194;7.690;2023-11-18T10:46:58;25.63;;;9.90;;
18449;SDS011;9354;50.194;7.690;2023-11-18T10:49:27;21.30;;;8.97;;
18449;SDS011;9354;50.194;7.690;2023-11-18T10:52:02;23.73;;;9.30;;
18449;SDS011;9354;50.194;7.690;2023-11-18T10:54:35;23.87;;;9.17;;
18449;SDS011;9354;50.194;7.690;2023-11-18T10:57:03;21.87;;;9.80;;
18449;SDS011;9354;50.194;7.690;2023-11-18T10:59:33;25.37;;;9.03;;
18449;SDS011;9354;50.194;7.690;2023-11-18T11:04:47;23.27;;;9.67;;
18449;SDS011;9354;50.194;7.690;2023-11-18T11:07:14;22.50;;;9.63;;
18449;SDS011;9354;50.194;7.690;2023-11-18T11:09:46;20.90;;;8.63;;
18449;SDS011;9354;50.194;7.690;2023-11-18T11:12:15;25.47;;;8.90;;
18449;SDS011;9354;50.194;7.690;2023-11-18T11:14:46;23.60;;;8.97;;
18449;SDS011;9354;50.194;7.690;2023-11-18T11:17:22;25.07;;;10.27;;
18449;SDS011;9354;50.194;7.690;2023-11-18T11:19:55;23.10;;;8.83;;
18449;SDS011;9354;50.194;7.690;2023-11-18T11:22:38;24.70;;;10.33;;
18449;SDS011;9354;50.194;7.690;2023-11-18T11:25:14;24.57;;;9.23;;
18449;SDS011;9354;50.194;7.690;2023-11-18T11:27:50;26.67;;;10.20;;
18449;SDS011;9354;50.194;7.690;2023-11-18T11:30:28;29.07;;;10.03;;
18449;SDS011;9354;50.194;7.690;2023-11-18T11:33:03;26.87;;;10.13;;
18449;SDS011;9354;50.194;7.690;2023-11-18T11:35:40;23.53;;;10.07;;
18449;SDS011;9354;50.194;7.690;2023-11-18T11:38:11;19.17;;;9.67;;
18449;SDS011;9354;50.194;7.690;2023-11-18T11:40:41;24.70;;;10.73;;
18449;SDS011;9354;50.194;7.690;2023-11-18T11:43:09;27.43;;;10.03;;
18449;SDS011;9354;50.194;7.690;2023-11-18T11:45:37;27.63;;;11.53;;
18449;SDS011;9354;50.194;7.690;2023-11-18T11:48:06;21.33;;;10.47;;
18449;SDS011;9354;50.194;7.690;2023-11-18T11:51:00;25.63;;;10.80;;
18449;SDS011;9354;50.194;7.690;2023-11-18T11:53:40;30.27;;;10.57;;
18449;SDS011;9354;50.194;7.690;2023-11-18T11:56:13;30.57;;;11.50;;
18449;SDS011;9354;50.194;7.690;2023-11-18T11:58:46;29.93;;;11.47;;
18449;SDS011;9354;50.194;7.690;2023-11-18T12:01:21;25.17;;;9.97;;
18449;SDS011;9354;50.194;7.690;2023-11-18T12:03:56;32.40;;;11.53;;
18449;SDS011;9354;50.194;7.690;2023-11-18T12:06:24;29.37;;;12.33;;
18449;SDS011;9354;50.194;7.690;2023-11-18T12:08:53;30.30;;;12.57;;
18449;SDS011;9354;50.194;7.690;2023-11-18T12:11:22;31.27;;;13.07;;
18449;SDS011;9354;50.194;7.690;2023-11-18T12:14:02;31.07;;;12.33;;
18449;SDS011;9354;50.194;7.690;2023-11-18T12:19:29;30.07;;;12.27;;
18449;SDS011;9354;50.194;7.690;2023-11-18T12:21:58;35.87;;;12.63;;
18449;SDS011;9354;50.194;7.690;2023-11-18T12:24:26;27.00;;;11.83;;
18449;SDS011;9354;50.194;7.690;2023-11-18T12:26:56;28.60;;;12.37;;
18449;SDS011;9354;50.194;7.690;2023-11-18T12:29:31;27.10;;;11.27;;
18449;SDS011;9354;50.194;7.690;2023-11-18T12:32:00;26.10;;;11.53;;
18449;SDS011;9354;50.194;7.690;2023-11-18T12:34:49;33.07;;;12.63;;
18449;SDS011;9354;50.194;7.690;2023-11-18T12:37:30;27.00;;;10.50;;
18449;SDS011;9354;50.194;7.690;2023-11-18T12:43:18;28.13;;;11.33;;
18449;SDS011;9354;50.194;7.690;2023-11-18T12:46:19;30.30;;;11.13;;
18449;SDS011;9354;50.194;7.690;2023-11-18T12:49:15;35.60;;;10.23;;
18449;SDS011;9354;50.194;7.690;2023-11-18T12:51:45;25.43;;;10.17;;
18449;SDS011;9354;50.194;7.690;2023-11-18T12:54:14;24.57;;;10.60;;
18449;SDS011;9354;50.194;7.690;2023-11-18T12:56:42;24.23;;;9.30;;
18449;SDS011;9354;50.194;7.690;2023-11-18T12:59:15;20.30;;;9.03;;
18449;SDS011;9354;50.194;7.690;2023-11-18T13:01:44;25.27;;;8.93;;
18449;SDS011;9354;50.194;7.690;2023-11-18T13:04:18;20.30;;;9.40;;
18449;SDS011;9354;50.194;7.690;2023-11-18T13:06:46;22.63;;;10.00;;
18449;SDS011;9354;50.194;7.690;2023-11-18T13:09:17;18.70;;;8.63;;
18449;SDS011;9354;50.194;7.690;2023-11-18T13:11:52;20.33;;;8.13;;
18449;SDS011;9354;50.194;7.690;2023-11-18T13:14:23;18.40;;;7.80;;
18449;SDS011;9354;50.194;7.690;2023-11-18T13:16:52;19.43;;;7.80;;
18449;SDS011;9354;50.194;7.690;2023-11-18T13:19:24;20.63;;;8.47;;
18449;SDS011;9354;50.194;7.690;2023-11-18T13:21:56;19.47;;;8.20;;
18449;SDS011;9354;50.194;7.690;2023-11-18T13:24:25;20.80;;;8.20;;
18449;SDS011;9354;50.194;7.690;2023-11-18T13:26:53;15.17;;;7.20;;
18449;SDS011;9354;50.194;7.690;2023-11-18T13:29:23;15.80;;;7.43;;
18449;SDS011;9354;50.194;7.690;2023-11-18T13:31:51;12.47;;;7.23;;
18449;SDS011;9354;50.194;7.690;2023-11-18T13:34:19;19.67;;;8.50;;
18449;SDS011;9354;50.194;7.690;2023-11-18T13:36:46;18.03;;;7.00;;
18449;SDS011;9354;50.194;7.690;2023-11-18T13:39:15;14.73;;;6.90;;
18449;SDS011;9354;50.194;7.690;2023-11-18T13:41:43;14.47;;;6.73;;
18449;SDS011;9354;50.194;7.690;2023-11-18T13:44:11;18.30;;;7.77;;
18449;SDS011;9354;50.194;7.690;2023-11-18T13:46:40;14.90;;;6.80;;
18449;SDS011;9354;50.194;7.690;2023-11-18T13:49:09;13.27;;;7.13;;
18449;SDS011;9354;50.194;7.690;2023-11-18T13:51:38;15.53;;;7.17;;
18449;SDS011;9354;50.194;7.690;2023-11-18T13:54:05;15.23;;;6.87;;
18449;SDS011;9354;50.194;7.690;2023-11-18T13:56:34;18.53;;;8.27;;
18449;SDS011;9354;50.194;7.690;2023-11-18T13:59:02;14.87;;;7.23;;
18449;SDS011;9354;50.194;7.690;2023-11-18T14:01:30;17.57;;;7.70;;
18449;SDS011;9354;50.194;7.690;2023-11-18T14:04:00;15.23;;;7.70;;
18449;SDS011;9354;50.194;7.690;2023-11-18T14:06:30;15.63;;;7.70;;
18449;SDS011;9354;50.194;7.690;2023-11-18T14:08:57;15.67;;;7.50;;
18449;SDS011;9354;50.194;7.690;2023-11-18T14:11:25;17.50;;;7.77;;
18449;SDS011;9354;50.194;7.690;2023-11-18T14:13:52;19.70;;;8.73;;
18449;SDS011;9354;50.194;7.690;2023-11-18T14:16:20;25.47;;;8.70;;
18449;SDS011;9354;50.194;7.690;2023-11-18T14:18:49;16.63;;;7.80;;
18449;SDS011;9354;50.194;7.690;2023-11-18T14:21:18;20.60;;;8.33;;
18449;SDS011;9354;50.194;7.690;2023-11-18T14:23:46;19.67;;;8.83;;
18449;SDS011;9354;50.194;7.690;2023-11-18T14:26:13;23.00;;;9.43;;
18449;SDS011;9354;50.194;7.690;2023-11-18T14:28:40;19.97;;;8.67;;
18449;SDS011;9354;50.194;7.690;2023-11-18T14:31:09;19.47;;;9.67;;
18449;SDS011;9354;50.194;7.690;2023-11-18T14:33:36;26.23;;;9.97;;
18449;SDS011;9354;50.194;7.690;2023-11-18T14:36:05;22.57;;;10.30;;
18449;SDS011;9354;50.194;7.690;2023-11-18T14:38:36;24.83;;;9.57;;
18449;SDS011;9354;50.194;7.690;2023-11-18T14:41:03;24.97;;;10.03;;
18449;SDS011;9354;50.194;7.690;2023-11-18T14:43:33;21.33;;;9.77;;
18449;SDS011;9354;50.194;7.690;2023-11-18T14:46:01;25.77;;;9.60;;
18449;SDS011;9354;50.194;7.690;2023-11-18T14:48:29;23.60;;;9.10;;
18449;SDS011;9354;50.194;7.690;2023-11-18T14:50:56;28.77;;;9.47;;
18449;SDS011;9354;50.194;7.690;2023-11-18T14:53:24;23.33;;;9.20;;
18449;SDS011;9354;50.194;7.690;2023-11-18T14:55:52;17.93;;;7.83;;
18449;SDS011;9354;50.194;7.690;2023-11-18T14:58:20;26.10;;;8.30;;
18449;SDS011;9354;50.194;7.690;2023-11-18T15:00:47;19.93;;;8.27;;